Time;durP1;ratioP1;P1;durP2;ratioP2;P2;SDS_P1;SDS_P2;PMS_P1;PMS_P2;Temp;Humidity;BMP_temperature;BMP_pressure;BME280_temperature;BME280_humidity;BME280_pressure;Samples;Min_cycle;Max_cycle;Signal;HPM_P1;HPM_P2
2023/08/07 00:02:10;;;;;;;1.65;0.40;;;;;;;17.00;79.04;101547.03;7360361;19;20593;-65
2023/08/07 00:04:37;;;;;;;2.30;0.50;;;;;;;16.98;78.79;101542.88;7360095;19;20704;-65
2023/08/07 00:07:04;;;;;;;1.58;0.40;;;;;;;16.96;79.29;101542.25;7361364;19;20018;-66
2023/08/07 00:09:31;;;;;;;2.65;0.50;;;;;;;16.95;79.27;101552.06;7359882;19;20018;-65
2023/08/07 00:11:58;;;;;;;1.25;0.50;;;;;;;16.94;78.98;101547.72;7356387;19;20098;-65
2023/08/07 00:14:25;;;;;;;2.22;0.30;;;;;;;16.90;78.54;101546.44;7361065;19;20031;-67
2023/08/07 00:16:52;;;;;;;1.92;0.50;;;;;;;16.88;78.09;101545.78;7359682;19;20555;-65
2023/08/07 00:19:19;;;;;;;3.30;0.65;;;;;;;16.85;78.40;101550.63;7361803;19;20035;-66
2023/08/07 00:21:46;;;;;;;1.30;0.40;;;;;;;16.82;78.44;101545.63;7355182;19;20111;-65
2023/08/07 00:24:13;;;;;;;1.75;0.45;;;;;;;16.80;78.23;101550.31;7360238;19;20036;-65
2023/08/07 00:26:41;;;;;;;1.98;0.40;;;;;;;16.74;78.57;101543.88;7358634;19;20011;-66
2023/08/07 00:29:08;;;;;;;1.88;0.60;;;;;;;16.73;78.25;101547.53;7362173;19;20824;-66
2023/08/07 00:31:35;;;;;;;3.45;0.40;;;;;;;16.72;78.62;101547.69;7362338;19;20027;-66
2023/08/07 00:34:03;;;;;;;3.13;0.40;;;;;;;16.73;78.21;101552.00;7363523;19;20339;-66
2023/08/07 00:36:34;;;;;;;1.17;0.40;;;;;;;16.71;78.30;101546.06;7359768;19;20477;-66
2023/08/07 00:39:05;;;;;;;2.72;0.50;;;;;;;16.70;78.28;101547.06;7358937;19;20688;-66
2023/08/07 00:41:32;;;;;;;1.20;0.30;;;;;;;16.68;76.77;101547.22;7352800;19;20098;-66
2023/08/07 00:44:00;;;;;;;1.23;0.40;;;;;;;16.64;77.20;101544.09;7357071;19;20515;-66
2023/08/07 00:46:29;;;;;;;2.30;0.60;;;;;;;16.60;77.00;101545.44;7359497;19;20029;-66
2023/08/07 00:48:56;;;;;;;0.80;0.30;;;;;;;16.59;77.26;101543.78;7359400;19;20014;-66
2023/08/07 00:51:24;;;;;;;2.33;0.45;;;;;;;16.59;77.68;101537.66;7355782;19;20018;-66
2023/08/07 00:53:51;;;;;;;1.13;0.40;;;;;;;16.58;77.58;101535.94;7356678;19;20082;-65
2023/08/07 00:56:18;;;;;;;1.02;0.30;;;;;;;16.54;77.38;101530.16;7354475;19;20479;-65
2023/08/07 00:58:46;;;;;;;1.27;0.30;;;;;;;16.53;77.39;101527.69;7361122;19;20022;-66
2023/08/07 01:01:14;;;;;;;2.08;0.40;;;;;;;16.51;77.70;101541.13;7357410;19;20141;-66
2023/08/07 01:03:41;;;;;;;1.33;0.40;;;;;;;16.45;77.23;101536.53;7359918;19;20502;-66
2023/08/07 01:06:08;;;;;;;0.63;0.30;;;;;;;16.44;77.93;101540.19;7356331;19;20426;-66
2023/08/07 01:08:36;;;;;;;1.13;0.40;;;;;;;16.44;78.05;101537.53;7361118;19;20665;-65
2023/08/07 01:11:13;;;;;;;1.00;0.40;;;;;;;16.44;78.28;101534.88;7360383;19;20026;-65
2023/08/07 01:14:05;;;;;;;1.35;0.30;;;;;;;16.45;77.95;101544.50;7364434;19;20113;-65
2023/08/07 01:16:37;;;;;;;1.15;0.40;;;;;;;16.43;77.73;101549.16;7365481;19;20832;-65
2023/08/07 01:19:13;;;;;;;1.52;0.40;;;;;;;16.41;78.12;101545.00;7367781;19;20018;-66
2023/08/07 01:21:40;;;;;;;2.22;1.05;;;;;;;16.35;78.14;101543.06;7367099;19;20018;-66
2023/08/07 01:24:09;;;;;;;1.27;0.30;;;;;;;16.28;78.55;101545.56;7367290;19;20094;-65
2023/08/07 01:26:37;;;;;;;1.20;0.30;;;;;;;16.27;79.56;101544.72;7362431;19;20014;-67
2023/08/07 01:29:14;;;;;;;3.15;0.50;;;;;;;16.26;79.71;101532.44;7360471;19;20090;-66
2023/08/07 01:31:43;;;;;;;0.93;0.40;;;;;;;16.25;80.03;101536.09;7365861;19;20022;-66
2023/08/07 01:34:14;;;;;;;1.83;0.43;;;;;;;16.23;80.00;101538.09;7364162;19;20025;-66
2023/08/07 01:36:41;;;;;;;2.85;0.40;;;;;;;16.21;80.05;101540.09;7361955;19;20018;-66
2023/08/07 01:39:10;;;;;;;1.40;0.40;;;;;;;16.20;80.17;101548.25;7361432;19;20046;-66
2023/08/07 01:41:37;;;;;;;4.70;0.50;;;;;;;16.18;81.05;101550.25;7357692;19;20723;-66
2023/08/07 01:44:05;;;;;;;1.42;0.32;;;;;;;16.15;80.65;101534.66;7365551;19;20892;-66
2023/08/07 01:46:32;;;;;;;1.90;0.40;;;;;;;16.14;81.28;101535.66;7366183;19;20916;-66
2023/08/07 01:48:59;;;;;;;2.33;0.40;;;;;;;16.11;81.31;101536.81;7363189;19;20302;-66
2023/08/07 01:51:26;;;;;;;1.23;0.40;;;;;;;16.10;81.32;101539.66;7362598;19;20078;-66
2023/08/07 01:53:53;;;;;;;2.63;0.40;;;;;;;16.05;81.07;101536.69;7359756;19;20605;-66
2023/08/07 01:56:38;;;;;;;2.35;0.40;;;;;;;16.04;81.59;101535.88;7352564;19;20019;-66
2023/08/07 01:59:05;;;;;;;1.45;0.40;;;;;;;16.00;81.63;101525.75;7357499;19;20034;-65
2023/08/07 02:01:32;;;;;;;2.60;0.30;;;;;;;15.98;81.53;101528.56;7362214;19;20035;-65
2023/08/07 02:03:59;;;;;;;1.42;0.30;;;;;;;15.97;82.10;101526.91;7362154;19;20006;-66
2023/08/07 02:06:26;;;;;;;1.45;0.30;;;;;;;15.96;82.11;101521.75;7361868;19;20094;-66
2023/08/07 02:08:53;;;;;;;1.05;0.30;;;;;;;15.93;82.24;101533.56;7363801;19;20680;-65
2023/08/07 02:11:20;;;;;;;0.65;0.30;;;;;;;15.89;82.08;101518.97;7359631;19;20022;-65
2023/08/07 02:13:47;;;;;;;1.20;0.28;;;;;;;15.89;82.49;101532.25;7364934;19;20029;-65
2023/08/07 02:16:14;;;;;;;3.03;0.40;;;;;;;15.88;82.61;101519.16;7362850;19;20383;-65
2023/08/07 02:18:41;;;;;;;0.65;0.20;;;;;;;15.87;82.58;101522.78;7362254;19;20511;-66
2023/08/07 02:21:08;;;;;;;2.92;0.40;;;;;;;15.85;82.51;101524.81;7360500;19;20518;-65
2023/08/07 02:23:35;;;;;;;1.10;0.30;;;;;;;15.81;82.69;101513.69;7363249;19;20053;-65
2023/08/07 02:26:02;;;;;;;0.82;0.30;;;;;;;15.80;82.57;101525.28;7359237;19;20105;-65
2023/08/07 02:28:29;;;;;;;0.60;0.30;;;;;;;15.78;83.14;101520.16;7360486;19;20018;-65
2023/08/07 02:31:15;;;;;;;2.60;0.40;;;;;;;15.80;83.24;101523.47;7355284;19;20571;-65
2023/08/07 02:33:42;;;;;;;0.82;0.30;;;;;;;15.77;83.23;101525.63;7359215;19;20017;-65
2023/08/07 02:36:09;;;;;;;4.00;1.50;;;;;;;15.74;83.08;101533.94;7361468;19;20373;-66
2023/08/07 02:38:36;;;;;;;1.17;0.30;;;;;;;15.73;83.43;101529.63;7362216;19;20018;-65
2023/08/07 02:41:03;;;;;;;2.42;0.30;;;;;;;15.70;83.56;101537.91;7358576;19;20014;-66
2023/08/07 02:43:32;;;;;;;2.22;0.40;;;;;;;15.65;83.95;101540.25;7356232;19;20105;-66
2023/08/07 02:45:59;;;;;;;1.48;0.50;;;;;;;15.61;84.21;101530.97;7359994;19;20126;-66
2023/08/07 02:48:26;;;;;;;1.50;0.60;;;;;;;15.62;84.97;101536.13;7360396;19;20024;-68
2023/08/07 02:50:53;;;;;;;1.40;0.40;;;;;;;15.64;84.76;101530.66;7359896;19;20551;-65
2023/08/07 02:53:20;;;;;;;2.35;0.40;;;;;;;15.63;84.31;101537.78;7362153;19;20495;-66
2023/08/07 02:55:47;;;;;;;1.20;0.40;;;;;;;15.61;84.46;101536.28;7355513;19;20018;-65
2023/08/07 02:58:14;;;;;;;3.13;0.60;;;;;;;15.59;84.63;101531.16;7360046;19;20350;-65
2023/08/07 03:00:43;;;;;;;1.30;0.40;;;;;;;15.59;84.68;101533.81;7361701;19;20022;-65
2023/08/07 03:03:10;;;;;;;1.08;0.40;;;;;;;15.59;85.03;101525.03;7363131;19;20186;-64
2023/08/07 03:05:37;;;;;;;1.13;0.40;;;;;;;15.60;84.67;101529.31;7359955;19;20093;-65
2023/08/07 03:08:04;;;;;;;1.00;0.40;;;;;;;15.59;84.85;101533.81;7363067;19;20010;-65
2023/08/07 03:10:31;;;;;;;1.10;0.52;;;;;;;15.60;85.25;101526.66;7358277;19;20114;-66
2023/08/07 03:12:58;;;;;;;1.75;0.40;;;;;;;15.58;85.08;101531.31;7363083;19;20833;-65
2023/08/07 03:15:25;;;;;;;1.42;0.50;;;;;;;15.55;84.92;101528.97;7358304;19;20187;-66
2023/08/07 03:17:52;;;;;;;3.72;1.30;;;;;;;15.55;85.42;101532.47;7360324;19;20021;-65
2023/08/07 03:20:19;;;;;;;1.90;0.47;;;;;;;15.53;86.11;101534.47;7359759;19;20550;-65
2023/08/07 03:22:46;;;;;;;1.05;0.40;;;;;;;15.54;86.21;101536.13;7362390;19;20051;-66
2023/08/07 03:25:13;;;;;;;2.05;0.40;;;;;;;15.54;86.03;101541.44;7357641;19;20031;-65
2023/08/07 03:27:40;;;;;;;1.30;0.40;;;;;;;15.53;86.42;101537.13;7358743;19;20018;-65
2023/08/07 03:30:07;;;;;;;3.35;0.40;;;;;;;15.53;86.20;101544.25;7358493;19;20057;-67
2023/08/07 03:32:41;;;;;;;2.45;0.45;;;;;;;15.52;86.40;101542.59;7356483;19;20085;-65
2023/08/07 03:35:08;;;;;;;1.63;0.70;;;;;;;15.52;86.47;101545.25;7356980;19;20922;-66
2023/08/07 03:37:36;;;;;;;1.48;0.60;;;;;;;15.51;86.67;101544.41;7358364;19;20020;-66
2023/08/07 03:40:04;;;;;;;1.35;0.40;;;;;;;15.48;86.98;101542.06;7357226;19;20018;-65
2023/08/07 03:42:33;;;;;;;3.35;0.47;;;;;;;15.46;87.00;101541.41;7359584;19;20536;-66
2023/08/07 03:45:00;;;;;;;2.40;0.50;;;;;;;15.46;87.00;101528.13;7359719;19;20014;-65
2023/08/07 03:47:27;;;;;;;3.17;0.35;;;;;;;15.43;87.22;101523.19;7360807;19;20106;-65
2023/08/07 03:49:54;;;;;;;1.92;0.40;;;;;;;15.40;87.00;101526.97;7356764;19;20325;-66
2023/08/07 03:52:21;;;;;;;2.97;0.70;;;;;;;15.43;87.98;101536.44;7357849;19;20438;-65
2023/08/07 03:54:48;;;;;;;1.48;0.40;;;;;;;15.45;88.16;101536.25;7359347;19;20395;-66
2023/08/07 03:57:15;;;;;;;3.33;0.43;;;;;;;15.40;87.57;101540.25;7353519;19;20018;-65
2023/08/07 03:59:42;;;;;;;2.83;0.60;;;;;;;15.36;87.60;101540.75;7358911;19;20018;-66
2023/08/07 04:02:09;;;;;;;2.70;0.50;;;;;;;15.34;87.54;101537.41;7360288;19;20014;-66
2023/08/07 04:04:36;;;;;;;2.92;0.50;;;;;;;15.30;87.70;101542.22;7358099;19;20019;-66
2023/08/07 04:07:03;;;;;;;2.78;0.60;;;;;;;15.29;87.96;101548.53;7359847;19;20019;-65
2023/08/07 04:09:31;;;;;;;1.83;0.80;;;;;;;15.28;88.94;101548.72;7358371;19;20065;-65
2023/08/07 04:11:58;;;;;;;1.70;0.60;;;;;;;15.28;88.62;101541.59;7355823;19;20014;-65
2023/08/07 04:14:26;;;;;;;0.90;0.40;;;;;;;15.29;88.96;101547.69;7357594;19;20050;-65
2023/08/07 04:16:52;;;;;;;1.45;0.40;;;;;;;15.29;88.94;101553.00;7360733;19;21803;-66
2023/08/07 04:19:20;;;;;;;2.78;0.50;;;;;;;15.30;88.75;101547.53;7358848;19;21639;-66
2023/08/07 04:21:47;;;;;;;1.15;0.52;;;;;;;15.27;88.84;101550.53;7357242;19;20085;-66
2023/08/07 04:24:14;;;;;;;1.48;0.60;;;;;;;15.23;89.19;101546.56;7357401;19;20003;-65
2023/08/07 04:26:41;;;;;;;1.15;0.47;;;;;;;15.25;89.53;101547.19;7357637;19;20022;-66
2023/08/07 04:29:08;;;;;;;5.60;0.60;;;;;;;15.25;89.37;101549.84;7355449;19;20475;-66
2023/08/07 04:31:35;;;;;;;1.80;0.40;;;;;;;15.27;89.52;101550.53;7358361;19;20555;-66
2023/08/07 04:34:02;;;;;;;2.53;0.50;;;;;;;15.26;89.52;101548.03;7355884;19;20391;-66
2023/08/07 04:36:29;;;;;;;1.52;0.50;;;;;;;15.27;89.81;101555.84;7359648;19;20022;-65
2023/08/07 04:38:57;;;;;;;2.17;0.40;;;;;;;15.27;89.51;101549.69;7356753;19;20660;-66
2023/08/07 04:41:24;;;;;;;1.70;0.55;;;;;;;15.28;89.70;101554.00;7354949;19;20018;-65
2023/08/07 04:43:51;;;;;;;3.42;0.50;;;;;;;15.27;89.67;101557.66;7364620;19;20024;-65
2023/08/07 04:46:18;;;;;;;1.67;0.40;;;;;;;15.27;89.73;101558.50;7364388;19;20022;-67
2023/08/07 04:48:45;;;;;;;4.00;0.70;;;;;;;15.26;89.52;101548.03;7363770;19;20011;-66
2023/08/07 04:51:12;;;;;;;1.92;0.43;;;;;;;15.24;89.54;101557.97;7361464;19;20014;-65
2023/08/07 04:53:39;;;;;;;1.65;0.60;;;;;;;15.24;89.85;101555.31;7364123;19;20025;-65
2023/08/07 04:56:06;;;;;;;3.05;0.50;;;;;;;15.25;89.67;101555.16;7357643;19;20486;-65
2023/08/07 04:58:33;;;;;;;3.22;0.95;;;;;;;15.27;90.34;101569.09;7361442;19;20405;-66
2023/08/07 05:01:00;;;;;;;1.40;0.50;;;;;;;15.22;89.77;101571.41;7364000;19;20006;-65
2023/08/07 05:03:27;;;;;;;2.25;0.60;;;;;;;15.25;90.36;101570.22;7364163;19;20496;-67
2023/08/07 05:05:58;;;;;;;3.40;0.60;;;;;;;15.25;89.94;101571.06;7365340;19;20034;-65
2023/08/07 05:08:26;;;;;;;3.15;0.60;;;;;;;15.24;89.85;101566.75;7364952;19;20023;-66
2023/08/07 05:10:53;;;;;;;4.40;0.70;;;;;;;15.27;90.12;101570.91;7362506;19;20891;-66
2023/08/07 05:13:20;;;;;;;4.75;0.60;;;;;;;15.28;89.89;101575.22;7365576;19;20046;-65
2023/08/07 05:15:48;;;;;;;2.05;0.63;;;;;;;15.26;89.71;101569.25;7365038;19;20480;-65
2023/08/07 05:18:16;;;;;;;3.25;0.57;;;;;;;15.27;89.76;101576.22;7364387;19;20058;-65
2023/08/07 05:20:43;;;;;;;2.00;0.60;;;;;;;15.26;89.66;101569.25;7364430;19;20015;-65
2023/08/07 05:26:45;;;;;;;4.03;0.70;;;;;;;15.21;89.85;101568.91;7358231;19;19987;-65
2023/08/07 05:29:13;;;;;;;3.88;0.60;;;;;;;15.19;89.64;101566.41;7363373;19;20033;-67
2023/08/07 05:31:40;;;;;;;3.75;1.17;;;;;;;15.20;90.02;101564.59;7364876;19;20633;-66
2023/08/07 05:34:07;;;;;;;2.38;0.70;;;;;;;15.22;89.96;101565.28;7364346;19;20531;-65
2023/08/07 05:36:34;;;;;;;2.58;0.60;;;;;;;15.25;90.15;101562.28;7361180;19;20026;-67
2023/08/07 05:39:03;;;;;;;5.22;0.80;;;;;;;15.23;89.54;101564.28;7362619;19;21750;-66
2023/08/07 05:41:30;;;;;;;2.55;0.65;;;;;;;15.22;89.77;101566.09;7360714;19;20014;-65
2023/08/07 05:43:57;;;;;;;5.03;0.75;;;;;;;15.22;89.73;101557.31;7362166;19;20042;-65
2023/08/07 05:46:24;;;;;;;2.28;0.90;;;;;;;15.23;89.55;101565.13;7364681;19;20038;-65
2023/08/07 05:48:51;;;;;;;3.35;1.00;;;;;;;15.24;90.11;101568.56;7361276;19;20014;-65
2023/08/07 05:51:19;;;;;;;2.80;0.73;;;;;;;15.24;89.81;101561.44;7360990;19;20035;-65
2023/08/07 05:53:46;;;;;;;2.85;0.95;;;;;;;15.27;90.06;101561.13;7363755;19;20118;-66
2023/08/07 05:56:13;;;;;;;2.33;0.55;;;;;;;15.30;90.25;101558.13;7354488;19;20321;-66
2023/08/07 05:58:40;;;;;;;3.45;0.70;;;;;;;15.36;89.88;101556.66;7357615;19;20019;-66
2023/08/07 06:05:00;;;;;;;3.17;0.95;;;;;;;15.35;88.83;101560.28;7364430;19;20014;-66
2023/08/07 06:07:35;;;;;;;2.97;0.80;;;;;;;15.40;89.03;101560.63;7386992;19;20123;-66
2023/08/07 06:10:02;;;;;;;2.35;0.93;;;;;;;15.43;88.94;101575.41;7374170;19;20048;-65
2023/08/07 06:12:34;;;;;;;2.78;1.08;;;;;;;15.44;88.77;101571.75;7362921;19;20022;-66
2023/08/07 06:15:01;;;;;;;1.77;0.60;;;;;;;15.44;88.98;101575.22;7362427;19;20007;-67
2023/08/07 06:17:28;;;;;;;1.77;0.93;;;;;;;15.46;89.32;101578.53;7360838;19;20010;-66
2023/08/07 06:19:55;;;;;;;3.47;0.93;;;;;;;15.50;88.96;101579.03;7361947;19;20011;-66
2023/08/07 06:22:33;;;;;;;2.97;0.95;;;;;;;15.52;89.37;101575.25;7364595;19;20328;-66
2023/08/07 06:25:38;;;;;;;3.42;1.00;;;;;;;15.57;88.74;101583.53;7353105;19;20018;-66
2023/08/07 06:28:05;;;;;;;3.53;1.17;;;;;;;15.60;88.87;101590.31;7362757;19;20507;-66
2023/08/07 06:30:32;;;;;;;3.25;0.68;;;;;;;15.65;89.03;101590.66;7362055;19;20022;-66
2023/08/07 06:32:59;;;;;;;3.13;1.13;;;;;;;15.69;88.87;101587.53;7363526;19;20111;-69
2023/08/07 06:35:26;;;;;;;3.60;1.35;;;;;;;15.77;88.63;101589.31;7365381;19;20037;-68
2023/08/07 06:37:53;;;;;;;2.50;0.90;;;;;;;15.85;87.69;101589.31;7361000;19;20010;-66
2023/08/07 06:40:22;;;;;;;4.05;0.80;;;;;;;15.89;87.42;101589.81;7348129;19;20049;-66
2023/08/07 06:42:49;;;;;;;5.60;0.77;;;;;;;15.93;86.17;101591.97;7362405;19;20014;-66
2023/08/07 06:45:16;;;;;;;4.68;1.13;;;;;;;15.96;86.00;101590.78;7361172;19;20026;-66
2023/08/07 06:47:43;;;;;;;1.35;0.55;;;;;;;16.00;86.13;101590.28;7363425;19;20102;-67
2023/08/07 06:50:10;;;;;;;2.40;0.70;;;;;;;16.00;86.22;101584.16;7363130;19;20032;-66
2023/08/07 06:52:38;;;;;;;1.92;0.65;;;;;;;16.02;85.93;101584.81;7362207;19;20047;-65
2023/08/07 06:55:08;;;;;;;2.88;0.60;;;;;;;16.02;86.66;101587.47;7357340;19;20097;-66
2023/08/07 07:01:04;;;;;;;4.55;0.73;;;;;;;16.06;85.24;101588.78;7351141;19;19987;-65
2023/08/07 07:03:31;;;;;;;3.60;0.52;;;;;;;16.06;85.12;101586.13;7362132;19;20028;-66
2023/08/07 07:05:59;;;;;;;3.75;0.80;;;;;;;16.06;85.17;101586.13;7360225;19;20025;-66
2023/08/07 07:08:25;;;;;;;3.05;0.60;;;;;;;16.08;84.87;101592.09;7362658;19;21067;-66
2023/08/07 07:10:53;;;;;;;4.30;0.70;;;;;;;16.12;84.72;101591.59;7356693;19;20404;-66
2023/08/07 07:13:20;;;;;;;2.33;0.73;;;;;;;16.13;84.88;101595.91;7362729;19;22031;-65
2023/08/07 07:15:52;;;;;;;2.60;0.50;;;;;;;16.16;84.88;101589.41;7360061;19;20380;-66
2023/08/07 07:18:19;;;;;;;;;;;;;;;16.20;84.42;101594.19;7362415;19;20021;-66
2023/08/07 07:20:46;;;;;;;3.67;0.60;;;;;;;16.21;84.17;101603.00;7360064;19;20006;-66
2023/08/07 07:23:13;;;;;;;5.47;0.80;;;;;;;16.23;84.05;101595.72;7363405;19;20340;-66
2023/08/07 07:25:41;;;;;;;2.67;0.60;;;;;;;16.25;84.12;101602.50;7353541;19;20021;-66
2023/08/07 07:28:08;;;;;;;1.55;0.60;;;;;;;16.30;85.01;101596.69;7362202;19;20018;-65
2023/08/07 07:31:03;;;;;;;4.32;0.60;;;;;;;16.34;84.64;101589.19;7350814;19;20759;-66
2023/08/07 07:33:31;;;;;;;1.90;0.43;;;;;;;16.38;83.98;101583.38;7359370;19;20046;-66
2023/08/07 07:35:58;;;;;;;2.30;0.60;;;;;;;16.43;83.53;101591.66;7360430;19;20050;-66
2023/08/07 07:38:26;;;;;;;1.60;0.50;;;;;;;16.47;83.36;101589.47;7358592;19;20035;-66
2023/08/07 07:40:56;;;;;;;2.22;0.60;;;;;;;16.49;83.25;101585.66;7354798;19;20059;-66
2023/08/07 07:43:23;;;;;;;4.97;2.00;;;;;;;16.49;83.22;101574.19;7359575;19;20360;-66
2023/08/07 07:45:50;;;;;;;2.50;0.60;;;;;;;16.53;84.23;101573.69;7358824;19;20052;-67
2023/08/07 07:48:17;;;;;;;3.63;0.50;;;;;;;16.60;83.59;101577.34;7357379;19;20018;-66
2023/08/07 07:50:44;;;;;;;1.17;0.50;;;;;;;16.68;83.12;101577.28;7359805;19;21912;-66
2023/08/07 07:53:11;;;;;;;2.95;0.50;;;;;;;16.78;82.99;101578.88;7362419;19;21868;-67
2023/08/07 07:55:38;;;;;;;2.10;0.80;;;;;;;16.83;82.51;101579.19;7355635;19;20074;-65
2023/08/07 07:58:07;;;;;;;3.47;0.70;;;;;;;16.99;82.89;101571.13;7358855;19;20022;-69
2023/08/07 08:00:34;;;;;;;2.30;0.50;;;;;;;17.15;82.01;101573.69;7353066;19;20022;-65
2023/08/07 08:03:01;;;;;;;3.53;0.40;;;;;;;17.35;80.95;101576.69;7356270;19;20011;-66
2023/08/07 08:05:28;;;;;;;4.68;0.60;;;;;;;17.71;83.94;101583.06;7360364;19;20018;-65
2023/08/07 08:07:55;;;;;;;6.80;0.75;;;;;;;18.06;85.44;101580.72;7363261;19;20015;-66
2023/08/07 08:10:22;;;;;;;3.72;0.40;;;;;;;18.08;81.08;101574.19;7358078;19;20049;-66
2023/08/07 08:12:49;;;;;;;3.33;0.68;;;;;;;18.21;82.41;101570.88;7363338;19;21852;-66
2023/08/07 08:15:16;;;;;;;2.65;0.50;;;;;;;18.23;81.74;101569.69;7363638;19;20021;-66
2023/08/07 08:17:43;;;;;;;2.95;0.90;;;;;;;18.37;82.46;101568.03;7363160;19;20986;-66
2023/08/07 08:20:10;;;;;;;2.42;0.50;;;;;;;18.38;78.65;101572.34;7361992;19;20109;-65
2023/08/07 08:22:37;;;;;;;1.65;0.40;;;;;;;18.39;78.12;101574.81;7368171;19;20025;-66
2023/08/07 08:25:06;;;;;;;4.40;0.50;;;;;;;18.37;79.49;101576.84;7364573;19;20720;-66
2023/08/07 08:27:33;;;;;;;3.40;0.50;;;;;;;18.35;82.43;101581.53;7366296;19;20090;-66
2023/08/07 08:30:01;;;;;;;10.00;9.15;;;;;;;18.31;82.83;101580.25;7364837;19;20099;-66
2023/08/07 08:32:29;;;;;;;3.85;0.88;;;;;;;18.24;81.41;101579.31;7366211;19;20046;-66
2023/08/07 08:34:56;;;;;;;2.85;0.47;;;;;;;18.18;80.12;101574.75;7366166;19;20022;-67
2023/08/07 08:37:23;;;;;;;2.45;0.50;;;;;;;18.15;78.60;101579.59;7367767;19;20022;-65
2023/08/07 08:39:50;;;;;;;2.83;0.30;;;;;;;18.11;78.10;101583.66;7366093;19;20070;-65
2023/08/07 08:42:20;;;;;;;4.53;0.40;;;;;;;18.09;77.98;101591.81;7369028;19;20086;-65
2023/08/07 08:44:54;;;;;;;3.17;0.70;;;;;;;18.06;77.67;101586.03;7367309;19;20024;-68
2023/08/07 08:47:25;;;;;;;2.28;0.40;;;;;;;18.06;78.06;101588.69;7366472;19;20795;-65
2023/08/07 08:50:06;;;;;;;1.67;0.40;;;;;;;18.04;77.37;101585.38;7369083;19;20025;-66
2023/08/07 08:52:46;;;;;;;2.15;0.50;;;;;;;18.07;77.75;101593.84;7366861;19;20046;-66
2023/08/07 08:55:16;;;;;;;2.65;0.40;;;;;;;18.07;77.97;101599.19;7366652;19;20022;-66
2023/08/07 08:57:43;;;;;;;2.25;0.40;;;;;;;18.10;77.44;101587.31;7368410;19;20022;-65
2023/08/07 09:00:18;;;;;;;2.67;0.47;;;;;;;18.13;77.93;101584.31;7366797;19;20049;-66
2023/08/07 09:02:46;;;;;;;2.05;0.32;;;;;;;18.13;77.03;101589.63;7363126;19;20015;-66
2023/08/07 09:05:16;;;;;;;1.70;0.40;;;;;;;18.16;77.46;101587.41;7363776;19;20033;-66
2023/08/07 09:07:43;;;;;;;1.92;0.35;;;;;;;18.20;77.03;101594.03;7363397;19;20059;-67
2023/08/07 09:10:13;;;;;;;1.50;0.35;;;;;;;18.23;76.42;101592.84;7359236;19;20018;-66
2023/08/07 09:13:03;;;;;;;1.70;0.30;;;;;;;18.26;76.27;101582.66;7366116;19;20047;-66
2023/08/07 09:15:36;;;;;;;1.38;0.30;;;;;;;18.39;76.97;101589.97;7366276;19;20030;-65
2023/08/07 09:18:07;;;;;;;1.67;0.30;;;;;;;18.53;76.73;101594.50;7364887;19;20498;-66
2023/08/07 09:20:35;;;;;;;0.82;0.30;;;;;;;18.65;75.58;101579.69;7366710;19;20600;-65
2023/08/07 09:23:02;;;;;;;0.68;0.30;;;;;;;18.79;75.19;101584.16;7368066;19;20336;-67
2023/08/07 09:25:31;;;;;;;3.00;0.30;;;;;;;18.90;73.79;101580.16;7361936;19;20161;-66
2023/08/07 09:28:01;;;;;;;2.15;0.38;;;;;;;19.02;72.25;101585.84;7365713;19;20027;-66
2023/08/07 09:30:29;;;;;;;1.60;0.20;;;;;;;19.09;71.30;101579.56;7359836;19;20839;-67
2023/08/07 09:33:02;;;;;;;1.50;0.30;;;;;;;19.16;70.27;101587.63;7367867;19;20508;-66
2023/08/07 09:35:31;;;;;;;1.80;0.60;;;;;;;19.24;70.57;101592.84;7365933;19;20531;-67
2023/08/07 09:37:59;;;;;;;2.17;0.30;;;;;;;19.31;71.25;101584.88;7368675;19;20030;-65
2023/08/07 09:40:26;;;;;;;1.58;0.40;;;;;;;19.40;71.10;101581.09;7362432;19;20025;-66
2023/08/07 09:42:54;;;;;;;3.20;0.30;;;;;;;19.46;69.88;101588.34;7368429;19;20035;-66
2023/08/07 09:45:26;;;;;;;3.55;0.30;;;;;;;19.46;70.03;101583.00;7366110;19;20015;-71
2023/08/07 09:48:06;;;;;;;1.38;0.30;;;;;;;19.37;70.62;101587.63;7365327;19;20014;-66
2023/08/07 09:50:33;;;;;;;2.05;0.30;;;;;;;19.34;70.32;101580.00;7367067;19;20066;-66
2023/08/07 09:53:01;;;;;;;2.53;0.30;;;;;;;19.35;68.13;101576.28;7364472;19;20342;-65
2023/08/07 09:55:28;;;;;;;2.15;0.20;;;;;;;19.42;68.69;101589.72;7363198;19;20022;-67
2023/08/07 09:57:55;;;;;;;0.65;0.20;;;;;;;19.47;67.20;101590.00;7364967;19;20018;-66
2023/08/07 10:00:22;;;;;;;0.70;0.20;;;;;;;19.48;67.13;101589.81;7363541;19;20065;-66
2023/08/07 10:02:50;;;;;;;0.65;0.20;;;;;;;19.50;66.65;101587.78;7360054;19;20094;-66
2023/08/07 10:05:18;;;;;;;1.17;0.20;;;;;;;19.55;67.40;101592.56;7362194;19;20034;-66
2023/08/07 10:11:20;;;;;;;1.20;0.20;;;;;;;19.57;63.13;101579.81;7351383;19;19993;-66
2023/08/07 10:13:50;;;;;;;1.75;0.10;;;;;;;19.68;63.30;101581.97;7363755;19;20432;-66
2023/08/07 10:16:17;;;;;;;1.10;0.22;;;;;;;19.71;63.26;101573.56;7365290;19;20018;-66
2023/08/07 10:18:44;;;;;;;0.47;0.20;;;;;;;19.79;63.88;101575.25;7366851;19;20010;-67
2023/08/07 10:21:12;;;;;;;3.35;0.30;;;;;;;19.89;64.07;101568.56;7364102;19;20019;-66
2023/08/07 10:23:40;;;;;;;1.08;0.20;;;;;;;19.93;61.60;101564.47;7360833;19;20019;-67
2023/08/07 10:26:10;;;;;;;2.03;0.20;;;;;;;19.97;62.01;101560.38;7357827;19;20014;-66
2023/08/07 10:28:40;;;;;;;1.88;0.30;;;;;;;19.99;61.57;101566.38;7364451;19;20678;-66
2023/08/07 10:31:08;;;;;;;0.85;0.20;;;;;;;20.05;60.17;101565.59;7360125;19;20024;-67
2023/08/07 10:33:36;;;;;;;2.33;0.20;;;;;;;20.03;58.17;101564.94;7363900;19;20086;-67
2023/08/07 10:36:10;;;;;;;1.75;0.28;;;;;;;19.97;57.88;101557.72;7361736;19;20022;-66
2023/08/07 10:38:37;;;;;;;2.17;0.30;;;;;;;19.97;59.30;101554.22;7364194;19;20010;-66
2023/08/07 10:41:18;;;;;;;1.50;0.20;;;;;;;19.99;60.67;101558.34;7357585;19;20101;-65
2023/08/07 10:43:45;;;;;;;1.50;0.28;;;;;;;19.97;60.92;101557.72;7364241;19;20035;-65
2023/08/07 10:46:16;;;;;;;1.88;0.22;;;;;;;19.94;61.16;101551.94;7359808;19;20936;-66
2023/08/07 10:48:46;;;;;;;1.38;0.30;;;;;;;19.94;62.79;101554.63;7363442;19;20596;-66
2023/08/07 10:51:19;;;;;;;4.60;0.45;;;;;;;19.89;62.62;101549.84;7361706;19;20028;-66
2023/08/07 10:53:51;;;;;;;0.88;0.35;;;;;;;19.81;62.69;101547.31;7363242;19;20022;-66
2023/08/07 10:56:28;;;;;;;1.35;0.20;;;;;;;19.81;62.79;101541.19;7359302;19;20479;-66
2023/08/07 10:58:55;;;;;;;2.72;0.25;;;;;;;19.79;62.97;101546.72;7362791;19;20442;-66
2023/08/07 11:01:34;;;;;;;3.53;0.40;;;;;;;19.77;63.28;101545.25;7360949;19;20014;-65
2023/08/07 11:07:29;;;;;;;1.77;0.20;;;;;;;19.76;62.53;101532.94;7350034;19;20010;-67
2023/08/07 11:09:58;;;;;;;1.30;0.28;;;;;;;19.83;62.29;101539.13;7359515;19;20084;-67
2023/08/07 11:12:39;;;;;;;2.90;0.30;;;;;;;19.88;62.44;101537.50;7360173;19;20014;-65
2023/08/07 11:15:14;;;;;;;1.75;0.20;;;;;;;19.94;62.71;101544.75;7359110;19;20026;-66
2023/08/07 11:17:42;;;;;;;1.58;0.20;;;;;;;19.93;60.46;101536.91;7363150;19;20017;-66
2023/08/07 11:20:10;;;;;;;1.23;0.20;;;;;;;19.92;59.16;101536.09;7360206;19;20093;-65
2023/08/07 11:22:42;;;;;;;2.17;0.22;;;;;;;19.96;59.55;101533.88;7361794;19;20497;-65
2023/08/07 11:25:13;;;;;;;1.90;0.20;;;;;;;19.97;60.11;101532.84;7357687;19;20026;-67
2023/08/07 11:27:43;;;;;;;2.08;0.40;;;;;;;20.05;60.21;101527.34;7359920;19;20082;-66
2023/08/07 11:30:12;;;;;;;1.90;0.50;;;;;;;20.13;59.22;101524.50;7363462;19;20010;-66
2023/08/07 11:37:57;;;;;;;2.45;0.15;;;;;;;20.38;56.55;101532.84;7357123;19;20039;-67
2023/08/07 11:40:24;;;;;;;2.30;0.30;;;;;;;20.39;56.49;101526.50;7376852;19;20404;-66
2023/08/07 11:45:52;;;;;;;1.80;0.20;;;;;;;20.39;55.36;101526.50;7350342;19;20429;-66
2023/08/07 11:48:19;;;;;;;1.20;0.28;;;;;;;20.39;55.28;101513.97;7357463;19;20014;-67
2023/08/07 11:50:54;;;;;;;1.95;0.30;;;;;;;20.37;55.86;101516.00;7361057;19;20639;-65
2023/08/07 11:53:24;;;;;;;1.20;0.38;;;;;;;20.38;55.69;101511.47;7360906;19;20451;-67
2023/08/07 11:55:59;;;;;;;2.95;0.30;;;;;;;20.40;55.65;101520.13;7357956;19;20018;-67
2023/08/07 11:58:45;;;;;;;0.93;0.30;;;;;;;20.39;55.34;101519.31;7361768;19;20053;-66